sensor_id;sensor_type;location;lat;lon;timestamp;pressure;altitude;pressure_sealevel;temperature;humidity
77954;BME280;67151;52.544;6.034;2023-08-24T00:00:05;101870;;;25.9;51.8
77954;BME280;67151;52.544;6.034;2023-08-24T00:00:19;101870;;;26;51.8
77954;BME280;67151;52.544;6.034;2023-08-24T00:00:36;101870;;;26;51.8
77954;BME280;67151;52.544;6.034;2023-08-24T00:00:49;101880;;;26;51.8
77954;BME280;67151;52.544;6.034;2023-08-24T00:01:04;101870;;;25.9;51.8
77954;BME280;67151;52.544;6.034;2023-08-24T00:01:19;101870;;;25.9;51.8
77954;BME280;67151;52.544;6.034;2023-08-24T00:01:34;101880;;;26;51.8
77954;BME280;67151;52.544;6.034;2023-08-24T00:01:49;101870;;;25.9;51.8
77954;BME280;67151;52.544;6.034;2023-08-24T00:02:04;101870;;;26;51.8
77954;BME280;67151;52.544;6.034;2023-08-24T00:02:19;101880;;;26;51.8
77954;BME280;67151;52.544;6.034;2023-08-24T00:02:34;101870;;;26;51.7
77954;BME280;67151;52.544;6.034;2023-08-24T00:02:49;101880;;;25.9;51.8
77954;BME280;67151;52.544;6.034;2023-08-24T00:03:05;101870;;;25.9;51.8
77954;BME280;67151;52.544;6.034;2023-08-24T00:03:19;101870;;;25.9;51.8
77954;BME280;67151;52.544;6.034;2023-08-24T00:03:34;101870;;;26;51.6
77954;BME280;67151;52.544;6.034;2023-08-24T00:03:49;101870;;;25.9;51.8
77954;BME280;67151;52.544;6.034;2023-08-24T00:04:04;101870;;;26;51.8
77954;BME280;67151;52.544;6.034;2023-08-24T00:04:19;101880;;;26;51.8
77954;BME280;67151;52.544;6.034;2023-08-24T00:04:34;101880;;;26;51.8
77954;BME280;67151;52.544;6.034;2023-08-24T00:04:49;101870;;;25.9;51.8
77954;BME280;67151;52.544;6.034;2023-08-24T00:05:04;101870;;;26;51.8
77954;BME280;67151;52.544;6.034;2023-08-24T00:05:19;101880;;;26;51.8
77954;BME280;67151;52.544;6.034;2023-08-24T00:05:34;101870;;;25.9;51.8
77954;BME280;67151;52.544;6.034;2023-08-24T00:05:49;101870;;;25.9;51.8
77954;BME280;67151;52.544;6.034;2023-08-24T00:06:04;101870;;;25.9;51.8
77954;BME280;67151;52.544;6.034;2023-08-24T00:06:19;101870;;;25.9;51.8
77954;BME280;67151;52.544;6.034;2023-08-24T00:06:34;101870;;;25.9;51.8
77954;BME280;67151;52.544;6.034;2023-08-24T00:06:49;101860;;;25.9;51.8
77954;BME280;67151;52.544;6.034;2023-08-24T00:07:04;101870;;;25.9;51.8
77954;BME280;67151;52.544;6.034;2023-08-24T00:07:19;101870;;;25.9;51.8
77954;BME280;67151;52.544;6.034;2023-08-24T00:07:34;101870;;;25.9;51.8
77954;BME280;67151;52.544;6.034;2023-08-24T00:07:49;101870;;;25.9;51.8
77954;BME280;67151;52.544;6.034;2023-08-24T00:08:05;101870;;;25.9;51.8
77954;BME280;67151;52.544;6.034;2023-08-24T00:08:19;101860;;;25.9;51.9
77954;BME280;67151;52.544;6.034;2023-08-24T00:08:34;101860;;;25.9;51.8
77954;BME280;67151;52.544;6.034;2023-08-24T00:08:49;101860;;;25.9;51.8
77954;BME280;67151;52.544;6.034;2023-08-24T00:09:04;101860;;;25.9;51.8
77954;BME280;67151;52.544;6.034;2023-08-24T00:09:19;101860;;;25.9;51.8
77954;BME280;67151;52.544;6.034;2023-08-24T00:09:34;101860;;;25.9;51.8
77954;BME280;67151;52.544;6.034;2023-08-24T00:09:52;101860;;;25.9;51.8
77954;BME280;67151;52.544;6.034;2023-08-24T00:10:05;101860;;;25.9;51.8
77954;BME280;67151;52.544;6.034;2023-08-24T00:10:19;101870;;;25.9;51.8
77954;BME280;67151;52.544;6.034;2023-08-24T00:10:35;101860;;;25.9;51.9
77954;BME280;67151;52.544;6.034;2023-08-24T00:10:49;101860;;;25.9;51.9
77954;BME280;67151;52.544;6.034;2023-08-24T00:11:04;101860;;;25.9;51.9
77954;BME280;67151;52.544;6.034;2023-08-24T00:11:19;101860;;;25.9;51.8
77954;BME280;67151;52.544;6.034;2023-08-24T00:11:34;101860;;;25.9;51.9
77954;BME280;67151;52.544;6.034;2023-08-24T00:11:49;101860;;;25.9;51.8
77954;BME280;67151;52.544;6.034;2023-08-24T00:12:05;101860;;;25.9;51.8
77954;BME280;67151;52.544;6.034;2023-08-24T00:12:19;101850;;;25.9;51.8
77954;BME280;67151;52.544;6.034;2023-08-24T00:12:34;101850;;;25.9;51.8
77954;BME280;67151;52.544;6.034;2023-08-24T00:12:49;101850;;;25.9;51.9
77954;BME280;67151;52.544;6.034;2023-08-24T00:13:04;101850;;;25.9;51.9
77954;BME280;67151;52.544;6.034;2023-08-24T00:13:19;101850;;;25.9;51.9
77954;BME280;67151;52.544;6.034;2023-08-24T00:13:34;101850;;;25.9;51.9
77954;BME280;67151;52.544;6.034;2023-08-24T00:13:49;101850;;;25.9;51.9
77954;BME280;67151;52.544;6.034;2023-08-24T00:14:04;101850;;;25.9;51.9
77954;BME280;67151;52.544;6.034;2023-08-24T00:14:19;101850;;;25.9;51.9
77954;BME280;67151;52.544;6.034;2023-08-24T00:14:34;101850;;;25.9;51.9
77954;BME280;67151;52.544;6.034;2023-08-24T00:14:49;101850;;;25.9;51.9
77954;BME280;67151;52.544;6.034;2023-08-24T00:15:07;101850;;;25.9;51.9
77954;BME280;67151;52.544;6.034;2023-08-24T00:15:19;101850;;;25.9;51.8
77954;BME280;67151;52.544;6.034;2023-08-24T00:15:34;101850;;;25.9;51.9
77954;BME280;67151;52.544;6.034;2023-08-24T00:15:49;101840;;;25.9;51.9
77954;BME280;67151;52.544;6.034;2023-08-24T00:16:04;101850;;;25.9;51.9
77954;BME280;67151;52.544;6.034;2023-08-24T00:16:19;101850;;;25.9;51.9
77954;BME280;67151;52.544;6.034;2023-08-24T00:16:34;101850;;;25.9;51.9
77954;BME280;67151;52.544;6.034;2023-08-24T00:16:49;101850;;;25.9;51.9
77954;BME280;67151;52.544;6.034;2023-08-24T00:17:04;101850;;;25.9;51.9
77954;BME280;67151;52.544;6.034;2023-08-24T00:17:19;101850;;;25.9;51.9
77954;BME280;67151;52.544;6.034;2023-08-24T00:17:34;101840;;;25.9;51.9
77954;BME280;67151;52.544;6.034;2023-08-24T00:17:49;101850;;;25.9;51.9
77954;BME280;67151;52.544;6.034;2023-08-24T00:18:04;101850;;;25.9;51.9
77954;BME280;67151;52.544;6.034;2023-08-24T00:18:19;101840;;;25.9;51.9
77954;BME280;67151;52.544;6.034;2023-08-24T00:18:34;101850;;;25.9;51.9
77954;BME280;67151;52.544;6.034;2023-08-24T00:18:49;101840;;;25.9;51.9
77954;BME280;67151;52.544;6.034;2023-08-24T00:19:04;101850;;;25.9;51.9
77954;BME280;67151;52.544;6.034;2023-08-24T00:19:19;101850;;;25.9;51.9
77954;BME280;67151;52.544;6.034;2023-08-24T00:19:34;101840;;;25.9;51.9
77954;BME280;67151;52.544;6.034;2023-08-24T00:19:49;101850;;;25.9;51.9
77954;BME280;67151;52.544;6.034;2023-08-24T00:20:05;101850;;;25.9;51.9
77954;BME280;67151;52.544;6.034;2023-08-24T00:20:19;101850;;;25.9;51.8
77954;BME280;67151;52.544;6.034;2023-08-24T00:20:34;101850;;;25.9;51.9
77954;BME280;67151;52.544;6.034;2023-08-24T00:20:49;101840;;;25.9;51.9
77954;BME280;67151;52.544;6.034;2023-08-24T00:21:04;101850;;;25.9;51.9
77954;BME280;67151;52.544;6.034;2023-08-24T00:21:19;101840;;;25.9;51.9
77954;BME280;67151;52.544;6.034;2023-08-24T00:21:34;101840;;;25.9;51.8
77954;BME280;67151;52.544;6.034;2023-08-24T00:21:49;101840;;;25.9;51.9
77954;BME280;67151;52.544;6.034;2023-08-24T00:22:05;101840;;;25.9;51.8
77954;BME280;67151;52.544;6.034;2023-08-24T00:22:19;101840;;;25.9;51.9
77954;BME280;67151;52.544;6.034;2023-08-24T00:22:34;101840;;;25.9;51.9
77954;BME280;67151;52.544;6.034;2023-08-24T00:22:49;101840;;;25.9;51.9
77954;BME280;67151;52.544;6.034;2023-08-24T00:23:04;101840;;;25.9;51.9
77954;BME280;67151;52.544;6.034;2023-08-24T00:23:19;101840;;;25.9;51.9
77954;BME280;67151;52.544;6.034;2023-08-24T00:23:34;101840;;;25.9;51.9
77954;BME280;67151;52.544;6.034;2023-08-24T00:23:49;101840;;;25.9;51.9
77954;BME280;67151;52.544;6.034;2023-08-24T00:24:04;101840;;;25.9;51.9
77954;BME280;67151;52.544;6.034;2023-08-24T00:24:19;101840;;;25.9;51.9
77954;BME280;67151;52.544;6.034;2023-08-24T00:24:34;101840;;;25.9;51.9
77954;BME280;67151;52.544;6.034;2023-08-24T00:24:49;101840;;;25.9;51.9
77954;BME280;67151;52.544;6.034;2023-08-24T00:25:05;101840;;;25.9;51.9
77954;BME280;67151;52.544;6.034;2023-08-24T00:25:19;101840;;;25.9;51.9
77954;BME280;67151;52.544;6.034;2023-08-24T00:25:34;101840;;;25.9;51.9
77954;BME280;67151;52.544;6.034;2023-08-24T00:25:49;101830;;;25.9;51.9
77954;BME280;67151;52.544;6.034;2023-08-24T00:26:04;101840;;;25.9;51.9
77954;BME280;67151;52.544;6.034;2023-08-24T00:26:19;101840;;;25.9;51.9
77954;BME280;67151;52.544;6.034;2023-08-24T00:26:34;101830;;;25.9;51.9
77954;BME280;67151;52.544;6.034;2023-08-24T00:26:49;101830;;;25.9;51.9
77954;BME280;67151;52.544;6.034;2023-08-24T00:27:04;101840;;;25.9;51.9
77954;BME280;67151;52.544;6.034;2023-08-24T00:27:19;101840;;;25.9;51.9
77954;BME280;67151;52.544;6.034;2023-08-24T00:27:34;101840;;;25.9;51.9
77954;BME280;67151;52.544;6.034;2023-08-24T00:27:49;101840;;;25.9;51.9
77954;BME280;67151;52.544;6.034;2023-08-24T00:28:04;101830;;;25.9;51.9
77954;BME280;67151;52.544;6.034;2023-08-24T00:28:19;101830;;;25.9;51.9
77954;BME280;67151;52.544;6.034;2023-08-24T00:28:34;101830;;;25.9;51.9
77954;BME280;67151;52.544;6.034;2023-08-24T00:28:49;101830;;;25.9;51.9
77954;BME280;67151;52.544;6.034;2023-08-24T00:29:04;101830;;;25.9;51.9
77954;BME280;67151;52.544;6.034;2023-08-24T00:29:19;101840;;;25.9;52
77954;BME280;67151;52.544;6.034;2023-08-24T00:29:34;101830;;;25.9;51.9
77954;BME280;67151;52.544;6.034;2023-08-24T00:29:49;101830;;;25.9;51.9
77954;BME280;67151;52.544;6.034;2023-08-24T00:30:05;101830;;;25.9;52
77954;BME280;67151;52.544;6.034;2023-08-24T00:30:19;101830;;;25.9;51.9
77954;BME280;67151;52.544;6.034;2023-08-24T00:30:34;101830;;;25.9;51.9
77954;BME280;67151;52.544;6.034;2023-08-24T00:30:49;101830;;;25.9;51.9
77954;BME280;67151;52.544;6.034;2023-08-24T00:31:04;101830;;;25.9;51.9
77954;BME280;67151;52.544;6.034;2023-08-24T00:31:19;101830;;;25.9;51.9
77954;BME280;67151;52.544;6.034;2023-08-24T00:31:34;101830;;;25.9;51.9
77954;BME280;67151;52.544;6.034;2023-08-24T00:31:49;101830;;;25.9;51.9
77954;BME280;67151;52.544;6.034;2023-08-24T00:32:04;101830;;;25.9;51.9
77954;BME280;67151;52.544;6.034;2023-08-24T00:32:19;101820;;;25.9;51.9
77954;BME280;67151;52.544;6.034;2023-08-24T00:32:34;101820;;;25.9;51.9
77954;BME280;67151;52.544;6.034;2023-08-24T00:32:49;101820;;;25.9;51.9
77954;BME280;67151;52.544;6.034;2023-08-24T00:33:04;101830;;;25.9;51.9
77954;BME280;67151;52.544;6.034;2023-08-24T00:33:19;101820;;;25.9;51.9
77954;BME280;67151;52.544;6.034;2023-08-24T00:33:34;101820;;;25.9;51.9
77954;BME280;67151;52.544;6.034;2023-08-24T00:33:49;101820;;;25.9;51.9
77954;BME280;67151;52.544;6.034;2023-08-24T00:34:04;101820;;;25.9;51.9
77954;BME280;67151;52.544;6.034;2023-08-24T00:34:19;101820;;;25.9;51.9
77954;BME280;67151;52.544;6.034;2023-08-24T00:34:34;101820;;;25.9;51.9
77954;BME280;67151;52.544;6.034;2023-08-24T00:34:49;101820;;;25.9;51.9
77954;BME280;67151;52.544;6.034;2023-08-24T00:35:05;101820;;;25.8;52
77954;BME280;67151;52.544;6.034;2023-08-24T00:35:19;101820;;;25.9;52
77954;BME280;67151;52.544;6.034;2023-08-24T00:35:34;101820;;;25.9;52
77954;BME280;67151;52.544;6.034;2023-08-24T00:35:49;101820;;;25.8;52
77954;BME280;67151;52.544;6.034;2023-08-24T00:36:05;101820;;;25.8;52
77954;BME280;67151;52.544;6.034;2023-08-24T00:36:19;101820;;;25.9;52
77954;BME280;67151;52.544;6.034;2023-08-24T00:36:34;101810;;;25.9;52
77954;BME280;67151;52.544;6.034;2023-08-24T00:36:49;101810;;;25.8;52
77954;BME280;67151;52.544;6.034;2023-08-24T00:37:04;101810;;;25.9;52
77954;BME280;67151;52.544;6.034;2023-08-24T00:37:19;101810;;;25.8;52
77954;BME280;67151;52.544;6.034;2023-08-24T00:37:34;101820;;;25.9;52
77954;BME280;67151;52.544;6.034;2023-08-24T00:37:49;101810;;;25.8;52
77954;BME280;67151;52.544;6.034;2023-08-24T00:38:04;101810;;;25.9;52
77954;BME280;67151;52.544;6.034;2023-08-24T00:38:19;101810;;;25.9;52
77954;BME280;67151;52.544;6.034;2023-08-24T00:38:34;101820;;;25.9;52
77954;BME280;67151;52.544;6.034;2023-08-24T00:38:49;101820;;;25.9;52
77954;BME280;67151;52.544;6.034;2023-08-24T00:39:05;101810;;;25.9;52
77954;BME280;67151;52.544;6.034;2023-08-24T00:39:19;101810;;;25.9;52
77954;BME280;67151;52.544;6.034;2023-08-24T00:39:34;101810;;;25.9;52
77954;BME280;67151;52.544;6.034;2023-08-24T00:39:49;101820;;;25.9;52
77954;BME280;67151;52.544;6.034;2023-08-24T00:40:05;101810;;;25.8;52
77954;BME280;67151;52.544;6.034;2023-08-24T00:40:19;101810;;;25.9;52
77954;BME280;67151;52.544;6.034;2023-08-24T00:40:34;101820;;;25.9;52
77954;BME280;67151;52.544;6.034;2023-08-24T00:40:49;101820;;;25.9;52
77954;BME280;67151;52.544;6.034;2023-08-24T00:41:04;101810;;;25.8;51.9
77954;BME280;67151;52.544;6.034;2023-08-24T00:41:19;101820;;;25.9;51.9
77954;BME280;67151;52.544;6.034;2023-08-24T00:41:34;101820;;;25.9;51.9
77954;BME280;67151;52.544;6.034;2023-08-24T00:41:49;101820;;;25.9;51.9
77954;BME280;67151;52.544;6.034;2023-08-24T00:42:04;101820;;;25.9;52
77954;BME280;67151;52.544;6.034;2023-08-24T00:42:19;101830;;;25.9;52
77954;BME280;67151;52.544;6.034;2023-08-24T00:42:36;101820;;;25.8;52
77954;BME280;67151;52.544;6.034;2023-08-24T00:42:49;101820;;;25.9;52
77954;BME280;67151;52.544;6.034;2023-08-24T00:43:04;101820;;;25.9;52
77954;BME280;67151;52.544;6.034;2023-08-24T00:43:19;101820;;;25.9;51.9
77954;BME280;67151;52.544;6.034;2023-08-24T00:43:34;101820;;;25.9;51.9
77954;BME280;67151;52.544;6.034;2023-08-24T00:43:49;101830;;;25.9;51.9
77954;BME280;67151;52.544;6.034;2023-08-24T00:44:04;101820;;;25.9;51.9
77954;BME280;67151;52.544;6.034;2023-08-24T00:44:19;101820;;;25.9;51.9
77954;BME280;67151;52.544;6.034;2023-08-24T00:44:34;101830;;;25.9;51.9
77954;BME280;67151;52.544;6.034;2023-08-24T00:44:49;101820;;;25.9;51.9
77954;BME280;67151;52.544;6.034;2023-08-24T00:45:05;101830;;;25.9;51.9
77954;BME280;67151;52.544;6.034;2023-08-24T00:45:19;101830;;;25.9;52
77954;BME280;67151;52.544;6.034;2023-08-24T00:45:34;101830;;;25.9;51.9
77954;BME280;67151;52.544;6.034;2023-08-24T00:45:50;101830;;;25.9;51.9
77954;BME280;67151;52.544;6.034;2023-08-24T00:46:04;101830;;;25.9;52
77954;BME280;67151;52.544;6.034;2023-08-24T00:46:19;101840;;;25.9;52
77954;BME280;67151;52.544;6.034;2023-08-24T00:46:34;101830;;;25.9;52
77954;BME280;67151;52.544;6.034;2023-08-24T00:46:49;101830;;;25.9;51.9
77954;BME280;67151;52.544;6.034;2023-08-24T00:47:04;101830;;;25.9;52
77954;BME280;67151;52.544;6.034;2023-08-24T00:47:19;101830;;;25.9;52
77954;BME280;67151;52.544;6.034;2023-08-24T00:47:34;101830;;;25.8;51.9
77954;BME280;67151;52.544;6.034;2023-08-24T00:47:49;101830;;;25.9;52
77954;BME280;67151;52.544;6.034;2023-08-24T00:48:04;101830;;;25.8;52
77954;BME280;67151;52.544;6.034;2023-08-24T00:48:19;101830;;;25.8;52
77954;BME280;67151;52.544;6.034;2023-08-24T00:48:34;101830;;;25.9;52
77954;BME280;67151;52.544;6.034;2023-08-24T00:48:49;101830;;;25.8;52
77954;BME280;67151;52.544;6.034;2023-08-24T00:49:04;101830;;;25.9;51.9
77954;BME280;67151;52.544;6.034;2023-08-24T00:49:20;101830;;;25.9;51.9
77954;BME280;67151;52.544;6.034;2023-08-24T00:49:34;101830;;;25.9;51.9
77954;BME280;67151;52.544;6.034;2023-08-24T00:49:49;101840;;;25.8;51.9
77954;BME280;67151;52.544;6.034;2023-08-24T00:50:05;101830;;;25.8;52
77954;BME280;67151;52.544;6.034;2023-08-24T00:50:19;101830;;;25.9;51.9
77954;BME280;67151;52.544;6.034;2023-08-24T00:50:34;101830;;;25.9;51.9
77954;BME280;67151;52.544;6.034;2023-08-24T00:50:49;101840;;;25.9;52
77954;BME280;67151;52.544;6.034;2023-08-24T00:51:04;101830;;;25.9;51.9
77954;BME280;67151;52.544;6.034;2023-08-24T00:51:19;101830;;;25.9;51.9
77954;BME280;67151;52.544;6.034;2023-08-24T00:51:34;101830;;;25.9;51.9
77954;BME280;67151;52.544;6.034;2023-08-24T00:51:49;101830;;;25.9;51.9
77954;BME280;67151;52.544;6.034;2023-08-24T00:52:04;101830;;;25.9;51.9
77954;BME280;67151;52.544;6.034;2023-08-24T00:52:19;101830;;;25.9;51.9
77954;BME280;67151;52.544;6.034;2023-08-24T00:52:35;101830;;;25.9;51.9
77954;BME280;67151;52.544;6.034;2023-08-24T00:52:49;101830;;;25.9;51.9
77954;BME280;67151;52.544;6.034;2023-08-24T00:53:04;101840;;;25.9;51.9
77954;BME280;67151;52.544;6.034;2023-08-24T00:53:19;101830;;;25.9;51.9
77954;BME280;67151;52.544;6.034;2023-08-24T00:53:34;101830;;;25.9;51.9
77954;BME280;67151;52.544;6.034;2023-08-24T00:53:49;101830;;;25.8;51.9
77954;BME280;67151;52.544;6.034;2023-08-24T00:54:04;101830;;;25.9;51.9
77954;BME280;67151;52.544;6.034;2023-08-24T00:54:19;101840;;;25.9;51.9
77954;BME280;67151;52.544;6.034;2023-08-24T00:54:34;101830;;;25.8;51.9
77954;BME280;67151;52.544;6.034;2023-08-24T00:54:49;101840;;;25.9;52
77954;BME280;67151;52.544;6.034;2023-08-24T00:55:05;101830;;;25.9;51.9
77954;BME280;67151;52.544;6.034;2023-08-24T00:55:20;101830;;;25.9;51.9
77954;BME280;67151;52.544;6.034;2023-08-24T00:55:34;101830;;;25.9;51.9
77954;BME280;67151;52.544;6.034;2023-08-24T00:55:49;101830;;;25.9;51.9
77954;BME280;67151;52.544;6.034;2023-08-24T00:56:04;101830;;;25.8;51.9
77954;BME280;67151;52.544;6.034;2023-08-24T00:56:19;101820;;;25.8;51.9
77954;BME280;67151;52.544;6.034;2023-08-24T00:56:34;101830;;;25.9;51.9
77954;BME280;67151;52.544;6.034;2023-08-24T00:56:49;101830;;;25.9;51.9
77954;BME280;67151;52.544;6.034;2023-08-24T00:57:04;101820;;;25.9;51.9
77954;BME280;67151;52.544;6.034;2023-08-24T00:57:19;101820;;;25.9;51.9
77954;BME280;67151;52.544;6.034;2023-08-24T00:57:34;101820;;;25.9;51.9
77954;BME280;67151;52.544;6.034;2023-08-24T00:57:49;101810;;;25.9;51.9
77954;BME280;67151;52.544;6.034;2023-08-24T00:58:04;101820;;;25.9;51.9
77954;BME280;67151;52.544;6.034;2023-08-24T00:58:19;101810;;;25.8;51.9
77954;BME280;67151;52.544;6.034;2023-08-24T00:58:34;101810;;;25.8;51.9
77954;BME280;67151;52.544;6.034;2023-08-24T00:58:49;101810;;;25.8;51.9
77954;BME280;67151;52.544;6.034;2023-08-24T00:59:04;101810;;;25.9;51.9
77954;BME280;67151;52.544;6.034;2023-08-24T00:59:19;101810;;;25.8;52
77954;BME280;67151;52.544;6.034;2023-08-24T00:59:34;101800;;;25.8;52
77954;BME280;67151;52.544;6.034;2023-08-24T00:59:49;101810;;;25.8;52
77954;BME280;67151;52.544;6.034;2023-08-24T01:00:05;101810;;;25.8;52
77954;BME280;67151;52.544;6.034;2023-08-24T01:00:19;101810;;;25.8;51.9
77954;BME280;67151;52.544;6.034;2023-08-24T01:00:34;101810;;;25.8;52
77954;BME280;67151;52.544;6.034;2023-08-24T01:00:50;101800;;;25.8;51.9
77954;BME280;67151;52.544;6.034;2023-08-24T01:01:04;101810;;;25.8;52
77954;BME280;67151;52.544;6.034;2023-08-24T01:01:19;101800;;;25.8;51.9
77954;BME280;67151;52.544;6.034;2023-08-24T01:01:34;101810;;;25.8;52
77954;BME280;67151;52.544;6.034;2023-08-24T01:01:49;101810;;;25.9;52
77954;BME280;67151;52.544;6.034;2023-08-24T01:02:04;101810;;;25.8;52
77954;BME280;67151;52.544;6.034;2023-08-24T01:02:19;101810;;;25.8;52
77954;BME280;67151;52.544;6.034;2023-08-24T01:02:34;101800;;;25.8;52
77954;BME280;67151;52.544;6.034;2023-08-24T01:02:49;101800;;;25.8;52
77954;BME280;67151;52.544;6.034;2023-08-24T01:03:04;101810;;;25.8;51.9
77954;BME280;67151;52.544;6.034;2023-08-24T01:03:21;101810;;;25.9;51.9
77954;BME280;67151;52.544;6.034;2023-08-24T01:03:34;101810;;;25.9;51.9
77954;BME280;67151;52.544;6.034;2023-08-24T01:03:49;101800;;;25.9;52
77954;BME280;67151;52.544;6.034;2023-08-24T01:04:04;101800;;;25.8;51.9
77954;BME280;67151;52.544;6.034;2023-08-24T01:04:19;101800;;;25.8;52
77954;BME280;67151;52.544;6.034;2023-08-24T01:04:34;101810;;;25.8;52
77954;BME280;67151;52.544;6.034;2023-08-24T01:04:49;101800;;;25.8;52
77954;BME280;67151;52.544;6.034;2023-08-24T01:05:04;101800;;;25.8;52
77954;BME280;67151;52.544;6.034;2023-08-24T01:05:19;101810;;;25.8;52
77954;BME280;67151;52.544;6.034;2023-08-24T01:05:34;101800;;;25.8;52
77954;BME280;67151;52.544;6.034;2023-08-24T01:05:49;101800;;;25.8;52
77954;BME280;67151;52.544;6.034;2023-08-24T01:06:04;101800;;;25.8;52
77954;BME280;67151;52.544;6.034;2023-08-24T01:06:19;101810;;;25.8;52
77954;BME280;67151;52.544;6.034;2023-08-24T01:06:34;101800;;;25.8;52
77954;BME280;67151;52.544;6.034;2023-08-24T01:06:49;101800;;;25.8;52
77954;BME280;67151;52.544;6.034;2023-08-24T01:07:04;101810;;;25.8;52
77954;BME280;67151;52.544;6.034;2023-08-24T01:07:19;101810;;;25.8;52
77954;BME280;67151;52.544;6.034;2023-08-24T01:07:34;101810;;;25.8;52
77954;BME280;67151;52.544;6.034;2023-08-24T01:07:49;101810;;;25.8;51.9
77954;BME280;67151;52.544;6.034;2023-08-24T01:08:04;101800;;;25.8;52
77954;BME280;67151;52.544;6.034;2023-08-24T01:08:19;101800;;;25.8;52
77954;BME280;67151;52.544;6.034;2023-08-24T01:08:34;101800;;;25.8;52
77954;BME280;67151;52.544;6.034;2023-08-24T01:08:49;101800;;;25.8;51.9
77954;BME280;67151;52.544;6.034;2023-08-24T01:09:04;101800;;;25.8;52
77954;BME280;67151;52.544;6.034;2023-08-24T01:09:19;101800;;;25.8;52
77954;BME280;67151;52.544;6.034;2023-08-24T01:09:34;101790;;;25.8;52
77954;BME280;67151;52.544;6.034;2023-08-24T01:09:49;101790;;;25.8;52
77954;BME280;67151;52.544;6.034;2023-08-24T01:10:05;101790;;;25.8;52
77954;BME280;67151;52.544;6.034;2023-08-24T01:10:19;101790;;;25.8;52
77954;BME280;67151;52.544;6.034;2023-08-24T01:10:37;101790;;;25.8;52
77954;BME280;67151;52.544;6.034;2023-08-24T01:10:52;101790;;;25.8;52
77954;BME280;67151;52.544;6.034;2023-08-24T01:11:09;101790;;;25.8;52
77954;BME280;67151;52.544;6.034;2023-08-24T01:11:20;101790;;;25.8;52
77954;BME280;67151;52.544;6.034;2023-08-24T01:11:38;101800;;;25.8;51.9
77954;BME280;67151;52.544;6.034;2023-08-24T01:11:52;101790;;;25.8;51.9
77954;BME280;67151;52.544;6.034;2023-08-24T01:12:06;101780;;;25.8;52
77954;BME280;67151;52.544;6.034;2023-08-24T01:12:20;101790;;;25.8;51.6
77954;BME280;67151;52.544;6.034;2023-08-24T01:12:37;101790;;;25.8;51.9
77954;BME280;67151;52.544;6.034;2023-08-24T01:12:52;101800;;;25.8;52
77954;BME280;67151;52.544;6.034;2023-08-24T01:13:07;101790;;;25.8;52
77954;BME280;67151;52.544;6.034;2023-08-24T01:13:21;101800;;;25.8;52
77954;BME280;67151;52.544;6.034;2023-08-24T01:13:36;101790;;;25.8;52
77954;BME280;67151;52.544;6.034;2023-08-24T01:13:50;101790;;;25.8;52
77954;BME280;67151;52.544;6.034;2023-08-24T01:14:07;101790;;;25.8;52
77954;BME280;67151;52.544;6.034;2023-08-24T01:14:21;101790;;;25.8;52
77954;BME280;67151;52.544;6.034;2023-08-24T01:14:36;101800;;;25.8;52
77954;BME280;67151;52.544;6.034;2023-08-24T01:14:50;101800;;;25.8;52
77954;BME280;67151;52.544;6.034;2023-08-24T01:15:07;101790;;;25.8;52
77954;BME280;67151;52.544;6.034;2023-08-24T01:15:21;101790;;;25.8;52
77954;BME280;67151;52.544;6.034;2023-08-24T01:15:37;101780;;;25.8;52
77954;BME280;67151;52.544;6.034;2023-08-24T01:15:51;101800;;;25.8;52
77954;BME280;67151;52.544;6.034;2023-08-24T01:16:06;101790;;;25.8;52
77954;BME280;67151;52.544;6.034;2023-08-24T01:16:20;101790;;;25.8;52
77954;BME280;67151;52.544;6.034;2023-08-24T01:16:34;101790;;;25.8;52
77954;BME280;67151;52.544;6.034;2023-08-24T01:16:50;101790;;;25.8;52
77954;BME280;67151;52.544;6.034;2023-08-24T01:17:04;101800;;;25.8;52
77954;BME280;67151;52.544;6.034;2023-08-24T01:17:20;101800;;;25.8;52
77954;BME280;67151;52.544;6.034;2023-08-24T01:17:34;101800;;;25.8;52
77954;BME280;67151;52.544;6.034;2023-08-24T01:17:49;101790;;;25.8;52
77954;BME280;67151;52.544;6.034;2023-08-24T01:18:05;101800;;;25.8;52
77954;BME280;67151;52.544;6.034;2023-08-24T01:18:19;101800;;;25.8;52
77954;BME280;67151;52.544;6.034;2023-08-24T01:18:34;101790;;;25.8;52
77954;BME280;67151;52.544;6.034;2023-08-24T01:18:49;101800;;;25.8;52
77954;BME280;67151;52.544;6.034;2023-08-24T01:19:04;101800;;;25.8;52
77954;BME280;67151;52.544;6.034;2023-08-24T01:19:22;101810;;;25.8;52
77954;BME280;67151;52.544;6.034;2023-08-24T01:19:37;101800;;;25.8;52
77954;BME280;67151;52.544;6.034;2023-08-24T01:19:49;101810;;;25.8;52
77954;BME280;67151;52.544;6.034;2023-08-24T01:20:05;101810;;;25.8;52
77954;BME280;67151;52.544;6.034;2023-08-24T01:20:19;101800;;;25.8;52
77954;BME280;67151;52.544;6.034;2023-08-24T01:20:34;101800;;;25.8;52
77954;BME280;67151;52.544;6.034;2023-08-24T01:20:49;101810;;;25.8;52
77954;BME280;67151;52.544;6.034;2023-08-24T01:21:04;101800;;;25.8;52
77954;BME280;67151;52.544;6.034;2023-08-24T01:21:19;101810;;;25.8;52
77954;BME280;67151;52.544;6.034;2023-08-24T01:21:34;101800;;;25.8;52
77954;BME280;67151;52.544;6.034;2023-08-24T01:21:49;101800;;;25.8;52
77954;BME280;67151;52.544;6.034;2023-08-24T01:22:05;101800;;;25.8;52
77954;BME280;67151;52.544;6.034;2023-08-24T01:22:23;101810;;;25.8;52
77954;BME280;67151;52.544;6.034;2023-08-24T01:22:37;101810;;;25.8;52
77954;BME280;67151;52.544;6.034;2023-08-24T01:22:54;101810;;;25.8;52
77954;BME280;67151;52.544;6.034;2023-08-24T01:23:07;101810;;;25.8;52
77954;BME280;67151;52.544;6.034;2023-08-24T01:23:24;101810;;;25.8;52
77954;BME280;67151;52.544;6.034;2023-08-24T01:23:36;101810;;;25.8;52
77954;BME280;67151;52.544;6.034;2023-08-24T01:23:53;101800;;;25.8;52
77954;BME280;67151;52.544;6.034;2023-08-24T01:24:10;101810;;;25.8;51.9
77954;BME280;67151;52.544;6.034;2023-08-24T01:24:22;101800;;;25.8;51.9
77954;BME280;67151;52.544;6.034;2023-08-24T01:24:36;101800;;;25.8;52
77954;BME280;67151;52.544;6.034;2023-08-24T01:24:52;101800;;;25.8;52